createdAt,value
2018-07-10T00:01:42.182Z,8.30
2018-07-10T00:04:37.154Z,7.43
2018-07-10T00:07:16.343Z,3.27
2018-07-10T00:09:56.057Z,7.80
2018-07-10T00:12:24.223Z,5.87
2018-07-10T00:14:52.416Z,10.10
2018-07-10T00:17:20.566Z,8.70
2018-07-10T00:19:48.707Z,5.37
2018-07-10T00:22:16.946Z,7.70
2018-07-10T00:24:45.107Z,3.73
2018-07-10T00:27:13.253Z,6.13
2018-07-10T00:29:41.389Z,8.37
2018-07-10T00:32:09.582Z,7.87
2018-07-10T00:34:37.739Z,7.90
2018-07-10T00:37:06.053Z,2.80
2018-07-10T00:39:34.290Z,6.00
2018-07-10T00:42:02.494Z,5.00
2018-07-10T00:44:30.645Z,12.07
2018-07-10T00:46:58.832Z,3.30
2018-07-10T00:49:26.982Z,5.30
2018-07-10T00:51:55.290Z,7.37
2018-07-10T00:54:23.462Z,7.70
2018-07-10T00:56:51.622Z,7.90
2018-07-10T00:59:19.770Z,7.13
2018-07-10T01:01:47.914Z,8.50
2018-07-10T01:04:16.202Z,7.40
2018-07-10T01:06:44.382Z,8.90
2018-07-10T01:09:13.394Z,5.50
2018-07-10T01:11:42.021Z,8.00
2018-07-10T01:14:10.199Z,8.60
2018-07-10T01:16:39.286Z,8.80
2018-07-10T01:19:11.857Z,5.10
2018-07-10T01:21:40.046Z,5.17
2018-07-10T01:24:08.214Z,4.83
2018-07-10T01:26:38.598Z,6.77
2018-07-10T01:29:14.950Z,6.60
2018-07-10T01:31:44.749Z,4.80
2018-07-10T01:34:13.452Z,4.97
2018-07-10T01:36:41.582Z,7.37
2018-07-10T01:39:09.730Z,12.07
2018-07-10T01:41:37.905Z,4.37
2018-07-10T01:44:07.055Z,9.33
2018-07-10T01:46:35.200Z,5.90
2018-07-10T01:49:03.606Z,4.73
2018-07-10T01:51:32.742Z,4.53
2018-07-10T01:54:00.969Z,6.73
2018-07-10T01:56:29.565Z,7.20
2018-07-10T01:58:58.083Z,5.47
2018-07-10T02:01:26.282Z,8.13
2018-07-10T02:03:55.643Z,8.30
2018-07-10T02:06:23.873Z,7.37
2018-07-10T02:08:52.234Z,6.47
2018-07-10T02:11:20.414Z,6.93
2018-07-10T02:13:49.094Z,8.37
2018-07-10T02:16:17.291Z,10.30
2018-07-10T02:18:45.842Z,5.37
2018-07-10T02:21:14.063Z,7.33
2018-07-10T02:23:44.122Z,3.47
2018-07-10T02:26:21.531Z,4.37
2018-07-10T02:28:50.517Z,4.73
2018-07-10T02:31:18.726Z,3.97
2018-07-10T02:33:47.071Z,3.87
2018-07-10T02:36:15.336Z,6.50
2018-07-10T02:38:46.206Z,3.33
2018-07-10T02:41:17.668Z,7.50
2018-07-10T02:43:49.631Z,4.67
2018-07-10T02:46:17.925Z,4.20
2018-07-10T02:48:46.118Z,6.17
2018-07-10T02:51:14.338Z,3.60
2018-07-10T02:53:44.982Z,3.20
2018-07-10T02:56:15.102Z,3.13
2018-07-10T02:58:43.323Z,6.20
2018-07-10T03:01:11.562Z,3.20
2018-07-10T03:03:41.674Z,5.07
2018-07-10T03:06:09.927Z,7.00
2018-07-10T03:08:38.178Z,7.57
2018-07-10T03:11:06.639Z,4.37
2018-07-10T03:13:35.315Z,7.47
2018-07-10T03:16:03.642Z,2.70
2018-07-10T03:18:32.183Z,3.83
2018-07-10T03:21:00.406Z,5.03
2018-07-10T03:23:28.602Z,8.17
2018-07-10T03:25:56.934Z,6.17
2018-07-10T03:28:25.034Z,3.90
2018-07-10T03:30:53.270Z,4.90
2018-07-10T03:33:21.473Z,4.20
2018-07-10T03:35:49.839Z,3.80
2018-07-10T03:38:17.800Z,5.30
2018-07-10T03:40:46.014Z,6.63
2018-07-10T03:43:14.214Z,4.33
2018-07-10T03:45:42.510Z,2.73
2018-07-10T03:48:10.717Z,4.50
2018-07-10T03:50:39.101Z,3.10
2018-07-10T03:53:07.358Z,4.93
2018-07-10T03:55:36.898Z,3.33
2018-07-10T03:58:05.182Z,4.57
2018-07-10T04:00:33.707Z,6.93
2018-07-10T04:03:02.030Z,4.03
2018-07-10T04:05:30.229Z,2.73
2018-07-10T04:07:58.619Z,6.10
2018-07-10T04:10:32.713Z,4.60
2018-07-10T04:13:07.903Z,9.33
2018-07-10T04:15:36.101Z,4.90
2018-07-10T04:18:06.900Z,3.43
2018-07-10T04:21:07.833Z,7.03
2018-07-10T04:23:38.710Z,5.83
2018-07-10T04:26:22.571Z,5.23
2018-07-10T04:28:53.878Z,4.83
2018-07-10T04:31:29.310Z,8.27
2018-07-10T04:33:57.862Z,5.13
2018-07-10T04:36:25.806Z,5.23
2018-07-10T04:38:55.126Z,5.30
2018-07-10T04:41:26.530Z,6.93
2018-07-10T04:44:11.357Z,10.33
2018-07-10T04:46:57.508Z,4.50
2018-07-10T04:49:32.556Z,6.20
2018-07-10T04:52:24.261Z,5.07
2018-07-10T04:54:58.493Z,3.40
2018-07-10T04:57:30.773Z,2.70
2018-07-10T05:00:00.973Z,5.17
2018-07-10T05:02:29.187Z,5.40
2018-07-10T05:04:57.429Z,6.10
2018-07-10T05:07:25.625Z,5.30
2018-07-10T05:09:53.954Z,2.70
2018-07-10T05:12:22.472Z,4.70
2018-07-10T05:14:53.154Z,3.93
2018-07-10T05:17:21.373Z,3.93
2018-07-10T05:19:49.610Z,5.00
2018-07-10T05:22:18.027Z,7.40
2018-07-10T05:24:46.445Z,2.77
2018-07-10T05:27:14.850Z,2.53
2018-07-10T05:29:43.112Z,4.57
2018-07-10T05:32:11.655Z,3.03
2018-07-10T05:34:40.404Z,5.30
2018-07-10T05:37:10.540Z,2.60
2018-07-10T05:39:43.911Z,6.40
2018-07-10T05:42:12.454Z,6.47
2018-07-10T05:44:40.591Z,3.23
2018-07-10T05:47:08.971Z,3.33
2018-07-10T05:49:38.817Z,4.13
2018-07-10T05:52:07.070Z,2.93
2018-07-10T05:54:37.661Z,7.43
2018-07-10T05:57:06.773Z,3.90
2018-07-10T05:59:35.394Z,6.60
2018-07-10T06:02:03.622Z,3.93
2018-07-10T06:04:32.548Z,3.43
2018-07-10T06:07:01.230Z,1.43
2018-07-10T06:09:29.435Z,3.60
2018-07-10T06:11:57.912Z,2.10
2018-07-10T06:14:26.681Z,3.93
2018-07-10T06:16:54.919Z,5.37
2018-07-10T06:19:23.138Z,2.27
2018-07-10T06:21:52.710Z,1.70
2018-07-10T06:24:24.914Z,8.17
2018-07-10T06:27:00.262Z,2.30
2018-07-10T06:30:06.500Z,9.27
2018-07-10T06:33:22.192Z,7.67
2018-07-10T06:36:01.778Z,4.73
2018-07-10T06:38:30.042Z,8.20
2018-07-10T06:40:58.259Z,5.87
2018-07-10T06:43:37.146Z,3.00
2018-07-10T06:46:05.580Z,4.40
2018-07-10T06:48:36.938Z,4.80
2018-07-10T06:51:10.126Z,4.13
2018-07-10T06:53:38.383Z,3.37
2018-07-10T06:56:06.611Z,10.50
2018-07-10T06:58:34.815Z,4.60
2018-07-10T07:01:03.014Z,4.40
2018-07-10T07:03:31.217Z,4.50
2018-07-10T07:05:59.458Z,3.70
2018-07-10T07:08:27.661Z,12.97
2018-07-10T07:10:55.946Z,4.30
2018-07-10T07:13:23.916Z,3.67
2018-07-10T07:15:51.907Z,3.40
2018-07-10T07:18:20.146Z,6.50
2018-07-10T07:20:48.346Z,3.10
2018-07-10T07:23:16.657Z,6.60
2018-07-10T07:25:45.319Z,6.13
2018-07-10T07:28:13.533Z,5.90
2018-07-10T07:30:41.745Z,9.57
2018-07-10T07:33:09.963Z,5.77
2018-07-10T07:35:38.232Z,4.30
2018-07-10T07:38:06.450Z,5.43
2018-07-10T07:40:34.650Z,2.30
2018-07-10T07:43:02.872Z,5.40
2018-07-10T07:45:30.799Z,3.83
2018-07-10T07:47:59.015Z,4.53
2018-07-10T07:50:27.328Z,5.63
2018-07-10T07:52:55.522Z,7.57
2018-07-10T07:55:24.146Z,2.30
2018-07-10T07:57:52.354Z,5.73
2018-07-10T08:00:20.591Z,6.37
2018-07-10T08:02:48.750Z,9.30
2018-07-10T08:05:17.378Z,5.10
2018-07-10T08:07:45.578Z,4.30
2018-07-10T08:10:14.035Z,6.70
2018-07-10T08:12:42.230Z,6.13
2018-07-10T08:15:11.011Z,3.47
2018-07-10T08:17:39.278Z,7.50
2018-07-10T08:20:07.611Z,6.77
2018-07-10T08:22:35.946Z,6.73
2018-07-10T08:25:04.850Z,5.23
2018-07-10T08:27:34.047Z,6.50
2018-07-10T08:30:02.256Z,5.87
2018-07-10T08:32:30.582Z,6.10
2018-07-10T08:34:58.935Z,6.63
2018-07-10T08:37:27.365Z,7.87
2018-07-10T08:39:55.568Z,3.93
2018-07-10T08:42:23.775Z,6.03
2018-07-10T08:44:52.049Z,3.20
2018-07-10T08:47:20.250Z,4.73
2018-07-10T08:49:48.750Z,5.33
2018-07-10T08:52:17.025Z,6.80
2018-07-10T08:54:45.245Z,5.80
2018-07-10T08:57:13.184Z,5.43
2018-07-10T08:59:46.014Z,3.47
2018-07-10T09:02:14.202Z,4.53
2018-07-10T09:04:42.484Z,5.07
2018-07-10T09:07:10.658Z,4.10
2018-07-10T09:09:38.926Z,7.60
2018-07-10T09:12:07.822Z,3.00
2018-07-10T09:14:36.058Z,5.50
2018-07-10T09:17:04.266Z,4.57
2018-07-10T09:19:32.470Z,2.80
2018-07-10T09:22:06.379Z,3.57
2018-07-10T09:24:36.358Z,3.80
2018-07-10T09:27:06.967Z,4.90
2018-07-10T09:29:35.186Z,6.87
2018-07-10T09:32:03.144Z,7.77
2018-07-10T09:34:31.378Z,9.73
2018-07-10T09:36:59.854Z,6.27
2018-07-10T09:39:28.511Z,7.30
2018-07-10T09:41:57.293Z,6.40
2018-07-10T09:44:25.916Z,8.17
2018-07-10T09:46:54.130Z,9.73
2018-07-10T09:49:22.345Z,5.37
2018-07-10T09:51:50.550Z,5.40
2018-07-10T09:54:18.762Z,6.47
2018-07-10T09:56:46.946Z,5.00
2018-07-10T09:59:15.079Z,8.87
2018-07-10T10:01:43.230Z,4.43
2018-07-10T10:04:11.368Z,4.30
2018-07-10T10:06:39.518Z,7.83
2018-07-10T10:09:07.690Z,7.17
2018-07-10T10:11:35.862Z,6.97
2018-07-10T10:14:04.012Z,6.60
2018-07-10T10:16:32.187Z,8.47
2018-07-10T10:19:00.334Z,8.93
2018-07-10T10:21:29.335Z,6.00
2018-07-10T10:23:58.206Z,8.20
2018-07-10T10:26:27.318Z,12.00
2018-07-10T10:28:55.445Z,8.67
2018-07-10T10:31:23.643Z,10.23
2018-07-10T10:33:51.801Z,9.20
2018-07-10T10:36:19.720Z,6.47
2018-07-10T10:38:48.254Z,7.70
2018-07-10T10:41:17.038Z,6.50
2018-07-10T10:43:46.329Z,6.83
2018-07-10T10:46:16.347Z,13.63
2018-07-10T10:48:44.494Z,5.77
2018-07-10T10:51:13.653Z,9.57
2018-07-10T10:53:42.234Z,5.43
2018-07-10T10:56:10.169Z,10.97
2018-07-10T10:58:38.908Z,7.93
2018-07-10T11:01:07.105Z,10.47
2018-07-10T11:03:35.309Z,8.77
2018-07-10T11:06:04.421Z,9.90
2018-07-10T11:08:32.634Z,7.30
2018-07-10T11:11:00.855Z,9.63
2018-07-10T11:13:29.042Z,5.90
2018-07-10T11:15:57.259Z,7.90
2018-07-10T11:18:34.146Z,6.30
2018-07-10T11:21:03.418Z,13.87
2018-07-10T11:24:04.066Z,8.67
2018-07-10T11:26:32.453Z,4.73
2018-07-10T11:29:01.250Z,12.30
2018-07-10T11:31:29.514Z,6.17
2018-07-10T11:33:57.726Z,8.70
2018-07-10T11:36:25.920Z,5.37
2018-07-10T11:38:57.231Z,10.20
2018-07-10T11:41:25.431Z,7.47
2018-07-10T11:43:53.658Z,7.93
2018-07-10T11:46:21.879Z,10.13
2018-07-10T11:48:50.148Z,7.27
2018-07-10T11:51:18.359Z,8.23
2018-07-10T11:53:46.570Z,7.13
2018-07-10T11:56:14.742Z,8.40
2018-07-10T11:58:42.925Z,10.30
2018-07-10T12:01:11.078Z,10.83
2018-07-10T12:03:40.634Z,8.47
2018-07-10T12:06:09.556Z,5.53
2018-07-10T12:08:37.765Z,11.83
2018-07-10T12:11:11.655Z,8.07
2018-07-10T12:13:40.402Z,11.53
2018-07-10T12:16:08.871Z,8.00
2018-07-10T12:18:37.051Z,6.33
2018-07-10T12:21:05.422Z,8.63
2018-07-10T12:23:33.564Z,9.90
2018-07-10T12:26:04.325Z,8.90
2018-07-10T12:28:32.789Z,8.23
2018-07-10T12:31:01.510Z,9.97
2018-07-10T12:33:29.686Z,9.63
2018-07-10T12:35:57.969Z,7.07
2018-07-10T12:38:26.298Z,9.70
2018-07-10T12:40:54.430Z,9.00
2018-07-10T12:43:22.586Z,12.50
2018-07-10T12:45:50.817Z,10.60
2018-07-10T12:48:18.968Z,9.07
2018-07-10T12:50:47.122Z,13.30
2018-07-10T12:53:15.270Z,11.80
2018-07-10T12:55:43.537Z,8.90
2018-07-10T12:58:11.703Z,8.23
2018-07-10T13:00:40.317Z,8.33
2018-07-10T13:03:10.230Z,11.20
2018-07-10T13:05:45.653Z,11.83
2018-07-10T13:08:13.785Z,9.53
2018-07-10T13:10:41.913Z,11.70
2018-07-10T13:13:10.057Z,11.23
2018-07-10T13:15:38.288Z,10.67
2018-07-10T13:18:06.435Z,9.43
2018-07-10T13:20:34.590Z,9.00
2018-07-10T13:23:02.962Z,13.27
2018-07-10T13:25:31.266Z,15.50
2018-07-10T13:27:59.914Z,13.00
2018-07-10T13:30:28.038Z,10.23
2018-07-10T13:32:56.194Z,11.97
2018-07-10T13:35:24.373Z,11.87
2018-07-10T13:37:53.377Z,9.90
2018-07-10T13:40:21.558Z,17.77
2018-07-10T13:42:59.599Z,15.30
2018-07-10T13:45:29.056Z,15.83
2018-07-10T13:47:57.230Z,13.57
2018-07-10T13:50:27.597Z,10.30
2018-07-10T13:52:56.869Z,13.77
2018-07-10T13:55:26.775Z,12.27
2018-07-10T13:58:08.285Z,12.87
2018-07-10T14:00:37.764Z,16.30
2018-07-10T14:03:05.918Z,13.47
2018-07-10T14:05:34.177Z,18.77
2018-07-10T14:08:02.313Z,17.67
2018-07-10T14:10:30.450Z,13.30
2018-07-10T14:12:58.941Z,14.37
2018-07-10T14:15:27.134Z,17.60
2018-07-10T14:17:56.556Z,28.33
2018-07-10T14:20:24.929Z,18.07
2018-07-10T14:22:53.217Z,19.93
2018-07-10T14:25:21.374Z,14.70
2018-07-10T14:27:49.511Z,23.53
2018-07-10T14:30:17.653Z,12.83
2018-07-10T14:32:45.796Z,17.97
2018-07-10T14:35:13.934Z,14.37
2018-07-10T14:37:42.074Z,18.30
2018-07-10T14:40:10.221Z,14.97
2018-07-10T14:42:38.477Z,16.80
2018-07-10T14:45:07.249Z,19.20
2018-07-10T14:47:36.846Z,18.57
2018-07-10T14:50:05.045Z,24.60
2018-07-10T14:52:33.206Z,18.07
2018-07-10T14:55:01.455Z,12.10
2018-07-10T14:57:29.866Z,20.07
2018-07-10T14:59:58.118Z,19.27
2018-07-10T15:02:26.326Z,14.10
2018-07-10T15:04:54.539Z,19.57
2018-07-10T15:07:22.837Z,17.07
2018-07-10T15:09:51.046Z,16.17
2018-07-10T15:12:19.258Z,18.40
2018-07-10T15:14:47.543Z,18.43
2018-07-10T15:17:20.938Z,17.43
2018-07-10T15:19:49.146Z,11.40
2018-07-10T15:22:17.359Z,14.33
2018-07-10T15:24:45.601Z,17.53
2018-07-10T15:27:13.884Z,10.40
2018-07-10T15:29:42.091Z,11.60
2018-07-10T15:32:10.328Z,9.03
2018-07-10T15:34:38.890Z,11.97
2018-07-10T15:37:07.390Z,13.93
2018-07-10T15:39:35.607Z,13.47
2018-07-10T15:42:04.842Z,7.93
2018-07-10T15:44:33.030Z,9.10
2018-07-10T15:47:01.263Z,13.93
2018-07-10T15:49:29.513Z,14.60
2018-07-10T15:51:59.126Z,11.23
2018-07-10T15:54:27.309Z,8.37
2018-07-10T15:56:55.525Z,11.07
2018-07-10T15:59:23.718Z,15.50
2018-07-10T16:01:51.970Z,8.97
2018-07-10T16:04:20.205Z,16.20
2018-07-10T16:06:48.430Z,9.23
2018-07-10T16:09:18.620Z,10.07
2018-07-10T16:11:49.026Z,9.00
2018-07-10T16:14:17.222Z,9.87
2018-07-10T16:16:46.461Z,13.40
2018-07-10T16:19:16.932Z,14.13
2018-07-10T16:21:53.891Z,10.73
2018-07-10T16:24:22.295Z,13.53
2018-07-10T16:26:50.515Z,10.03
2018-07-10T16:29:19.766Z,6.17
2018-07-10T16:31:47.697Z,9.27
2018-07-10T16:34:15.909Z,6.30
2018-07-10T16:36:44.097Z,7.70
2018-07-10T16:39:12.293Z,6.73
2018-07-10T16:41:45.922Z,7.83
2018-07-10T16:44:14.138Z,6.37
2018-07-10T16:46:47.228Z,7.57
2018-07-10T16:49:18.731Z,7.57
2018-07-10T16:52:24.754Z,8.63
2018-07-10T16:54:53.250Z,6.40
2018-07-10T16:57:21.497Z,5.60
2018-07-10T16:59:49.698Z,5.07
2018-07-10T17:02:17.998Z,4.30
2018-07-10T17:04:46.570Z,4.90
2018-07-10T17:07:14.766Z,6.63
2018-07-10T17:09:42.997Z,5.40
2018-07-10T17:12:11.169Z,6.90
2018-07-10T17:14:39.558Z,2.40
2018-07-10T17:17:12.045Z,4.83
2018-07-10T17:19:40.337Z,5.30
2018-07-10T17:22:08.545Z,4.70
2018-07-10T17:24:36.778Z,4.13
2018-07-10T17:27:04.969Z,3.33
2018-07-10T17:29:33.271Z,6.23
2018-07-10T17:32:01.472Z,7.80
2018-07-10T17:34:29.674Z,4.33
2018-07-10T17:36:57.924Z,8.40
2018-07-10T17:39:26.634Z,4.87
2018-07-10T17:41:55.042Z,5.13
2018-07-10T17:44:23.262Z,5.70
2018-07-10T17:46:51.653Z,6.07
2018-07-10T17:49:19.859Z,5.00
2018-07-10T17:51:48.066Z,5.03
2018-07-10T17:54:16.287Z,7.33
2018-07-10T17:56:44.545Z,6.27
2018-07-10T17:59:12.682Z,4.60
2018-07-10T18:01:40.809Z,4.23
2018-07-10T18:04:08.946Z,4.20
2018-07-10T18:06:37.431Z,4.43
2018-07-10T18:09:06.501Z,4.53
2018-07-10T18:11:35.068Z,5.37
2018-07-10T18:14:03.214Z,3.70
2018-07-10T18:16:35.462Z,5.50
2018-07-10T18:19:05.124Z,3.60
2018-07-10T18:21:34.685Z,2.97
2018-07-10T18:24:02.840Z,4.37
2018-07-10T18:26:31.051Z,3.70
2018-07-10T18:28:58.953Z,4.30
2018-07-10T18:31:27.141Z,4.17
2018-07-10T18:33:55.278Z,5.70
2018-07-10T18:36:23.458Z,2.00
2018-07-10T18:38:51.606Z,2.63
2018-07-10T18:41:19.837Z,2.27
2018-07-10T18:43:47.981Z,3.33
2018-07-10T18:46:16.476Z,4.73
2018-07-10T18:48:44.726Z,1.30
2018-07-10T18:51:12.861Z,2.57
2018-07-10T18:53:41.694Z,1.23
2018-07-10T18:56:10.003Z,2.13
2018-07-10T18:58:44.933Z,1.93
2018-07-10T19:01:15.425Z,1.20
2018-07-10T19:03:46.537Z,1.33
2018-07-10T19:06:16.334Z,2.67
2018-07-10T19:08:45.830Z,1.33
2018-07-10T19:11:15.046Z,1.13
2018-07-10T19:13:43.785Z,1.03
2018-07-10T19:16:11.994Z,1.40
2018-07-10T19:18:39.938Z,2.87
2018-07-10T19:21:19.540Z,1.23
2018-07-10T19:23:49.119Z,3.03
2018-07-10T19:26:21.604Z,1.20
2018-07-10T19:28:50.109Z,1.20
2018-07-10T19:31:20.185Z,1.83
2018-07-10T19:33:55.638Z,2.73
2018-07-10T19:36:24.486Z,2.40
2018-07-10T19:38:52.731Z,1.33
2018-07-10T19:41:21.828Z,1.90
2018-07-10T19:43:50.158Z,1.93
2018-07-10T19:46:18.446Z,1.43
2018-07-10T19:48:49.733Z,1.30
2018-07-10T19:51:19.497Z,1.40
2018-07-10T19:53:53.405Z,1.43
2018-07-10T19:56:22.570Z,1.67
2018-07-10T19:58:50.875Z,1.63
2018-07-10T20:01:43.868Z,2.60
2018-07-10T20:04:15.962Z,1.50
2018-07-10T20:06:53.921Z,1.20
2018-07-10T20:09:22.214Z,1.90
2018-07-10T20:12:03.490Z,1.53
2018-07-10T20:14:35.337Z,1.40
2018-07-10T20:17:04.070Z,1.43
2018-07-10T20:19:45.557Z,1.27
2018-07-10T20:22:23.707Z,1.23
2018-07-10T20:25:01.163Z,1.40
2018-07-10T20:27:51.710Z,5.40
2018-07-10T20:30:27.034Z,2.37
2018-07-10T20:33:08.408Z,1.30
2018-07-10T20:35:36.613Z,1.00
2018-07-10T20:38:04.895Z,1.33
2018-07-10T20:40:36.378Z,1.50
2018-07-10T20:43:13.697Z,1.67
2018-07-10T20:45:46.619Z,1.30
2018-07-10T20:48:23.806Z,1.00
2018-07-10T20:51:02.897Z,1.40
2018-07-10T20:53:40.002Z,2.50
2018-07-10T20:56:13.430Z,2.13
2018-07-10T20:58:51.583Z,2.13
2018-07-10T21:01:19.718Z,1.20
2018-07-10T21:03:53.446Z,1.30
2018-07-10T21:06:33.906Z,1.30
2018-07-10T21:09:07.269Z,2.23
2018-07-10T21:11:46.846Z,1.30
2018-07-10T21:14:19.510Z,1.30
2018-07-10T21:16:54.946Z,5.17
2018-07-10T21:20:28.546Z,3.63
2018-07-10T21:24:07.577Z,1.53
2018-07-10T21:26:41.714Z,1.43
2018-07-10T21:29:21.735Z,3.83
2018-07-10T21:31:55.078Z,1.50
2018-07-10T21:34:27.754Z,2.13
2018-07-10T21:37:00.767Z,1.50
2018-07-10T21:39:52.033Z,1.67
2018-07-10T21:43:34.001Z,1.60
2018-07-10T21:46:13.054Z,2.70
2018-07-10T21:48:50.774Z,1.47
2018-07-10T21:51:18.990Z,1.60
2018-07-10T21:53:47.342Z,3.37
2018-07-10T21:56:15.592Z,1.90
2018-07-10T21:58:44.199Z,5.80
2018-07-10T22:01:51.578Z,1.60
2018-07-10T22:04:21.937Z,1.60
2018-07-10T22:06:53.621Z,3.87
2018-07-10T22:09:23.723Z,1.80
2018-07-10T22:11:52.293Z,1.50
2018-07-10T22:14:20.686Z,1.77
2018-07-10T22:16:48.885Z,1.43
2018-07-10T22:19:18.640Z,1.80
2018-07-10T22:21:46.856Z,1.90
2018-07-10T22:24:15.390Z,2.73
2018-07-10T22:26:43.610Z,1.80
2018-07-10T22:29:11.962Z,1.90
2018-07-10T22:31:45.638Z,1.80
2018-07-10T22:34:13.826Z,3.90
2018-07-10T22:36:42.027Z,2.50
2018-07-10T22:39:10.242Z,4.73
2018-07-10T22:41:39.177Z,6.60
2018-07-10T22:44:07.418Z,2.33
2018-07-10T22:46:35.628Z,1.80
2018-07-10T22:49:07.142Z,3.43
2018-07-10T22:51:35.381Z,3.27
2018-07-10T22:54:04.082Z,2.80
2018-07-10T22:56:33.802Z,2.13
2018-07-10T22:59:02.613Z,3.60
2018-07-10T23:01:31.503Z,2.00
2018-07-10T23:03:59.669Z,2.90
2018-07-10T23:06:27.672Z,2.10
2018-07-10T23:08:55.846Z,2.97
2018-07-10T23:11:24.018Z,2.10
2018-07-10T23:13:52.247Z,2.40
2018-07-10T23:16:21.234Z,2.07
2018-07-10T23:18:49.431Z,3.73
2018-07-10T23:21:18.738Z,2.97
2018-07-10T23:23:47.322Z,2.23
2018-07-10T23:26:17.169Z,7.50
2018-07-10T23:28:45.881Z,2.13
2018-07-10T23:31:15.341Z,1.93
2018-07-10T23:33:44.450Z,2.70
2018-07-10T23:36:13.173Z,3.97
2018-07-10T23:39:01.658Z,2.60
2018-07-10T23:41:35.989Z,3.20
2018-07-10T23:44:06.635Z,2.30
2018-07-10T23:46:41.098Z,2.53
2018-07-10T23:49:13.824Z,3.00
2018-07-10T23:51:53.458Z,3.43
2018-07-10T23:54:21.621Z,3.03
2018-07-10T23:56:49.861Z,2.63
2018-07-10T23:59:18.067Z,3.30
